createdAt,value
2022-08-11T00:02:23.891Z,1.90
2022-08-11T00:04:50.658Z,1.80
2022-08-11T00:07:17.664Z,1.42
2022-08-11T00:09:44.448Z,1.73
2022-08-11T00:12:15.027Z,2.03
2022-08-11T00:14:42.790Z,1.42
2022-08-11T00:17:12.405Z,1.50
2022-08-11T00:20:12.930Z,1.60
2022-08-11T00:22:29.977Z,1.70
2022-08-11T00:25:02.144Z,1.40
2022-08-11T00:27:35.210Z,1.48
2022-08-11T00:30:02.420Z,1.57
2022-08-11T00:32:30.001Z,1.70
2022-08-11T00:35:50.068Z,1.55
2022-08-11T00:37:49.934Z,1.80
2022-08-11T00:40:44.497Z,1.70
2022-08-11T00:43:22.215Z,1.70
2022-08-11T00:46:21.749Z,1.90
2022-08-11T00:49:30.376Z,1.85
2022-08-11T00:52:07.935Z,1.58
2022-08-11T00:55:07.423Z,1.45
2022-08-11T00:57:53.404Z,1.70
2022-08-11T01:00:27.066Z,1.80
2022-08-11T01:03:17.824Z,1.65
2022-08-11T01:05:51.560Z,1.50
2022-08-11T01:09:22.346Z,1.60
2022-08-11T01:12:15.621Z,1.65
2022-08-11T01:15:18.891Z,1.85
2022-08-11T01:18:29.437Z,1.90
2022-08-11T01:21:17.257Z,1.92
2022-08-11T01:24:22.678Z,1.60
2022-08-11T01:27:19.193Z,1.88
2022-08-11T01:30:23.484Z,1.60
2022-08-11T01:33:11.508Z,1.85
2022-08-11T01:36:05.361Z,1.80
2022-08-11T01:38:37.391Z,1.75
2022-08-11T01:41:23.021Z,1.67
2022-08-11T01:44:26.488Z,1.80
2022-08-11T01:47:31.416Z,1.65
2022-08-11T01:50:10.815Z,1.80
2022-08-11T01:53:14.932Z,1.60
2022-08-11T01:56:10.785Z,1.80
2022-08-11T01:58:53.619Z,1.60
2022-08-11T02:01:44.339Z,1.95
2022-08-11T02:04:38.158Z,1.92
2022-08-11T02:07:22.400Z,1.83
2022-08-11T02:10:38.225Z,2.10
2022-08-11T02:13:35.628Z,1.70
2022-08-11T02:16:21.305Z,1.70
2022-08-11T02:19:13.635Z,1.85
2022-08-11T02:22:20.531Z,2.03
2022-08-11T02:25:01.786Z,1.95
2022-08-11T02:27:48.254Z,1.80
2022-08-11T02:30:18.720Z,2.10
2022-08-11T02:33:14.441Z,2.05
2022-08-11T02:35:54.568Z,2.20
2022-08-11T02:38:25.766Z,1.90
2022-08-11T02:41:34.076Z,2.10
2022-08-11T02:44:20.744Z,1.95
2022-08-11T02:46:58.171Z,2.03
2022-08-11T02:50:00.060Z,2.10
2022-08-11T02:52:51.184Z,1.90
2022-08-11T02:55:56.545Z,2.20
2022-08-11T02:59:11.201Z,1.80
2022-08-11T03:01:46.737Z,1.90
2022-08-11T03:04:37.713Z,2.40
2022-08-11T03:07:29.123Z,1.90
2022-08-11T03:10:09.948Z,2.00
2022-08-11T03:13:16.249Z,1.80
2022-08-11T03:16:40.052Z,1.90
2022-08-11T03:19:14.044Z,2.47
2022-08-11T03:22:11.218Z,2.15
2022-08-11T03:25:16.554Z,2.00
2022-08-11T03:27:54.978Z,2.10
2022-08-11T03:30:39.935Z,2.40
2022-08-11T03:33:33.838Z,2.15
2022-08-11T03:37:16.225Z,2.00
2022-08-11T03:40:03.599Z,2.78
2022-08-11T03:42:45.879Z,2.20
2022-08-11T03:45:40.723Z,2.30
2022-08-11T03:48:16.953Z,2.45
2022-08-11T03:50:55.649Z,2.25
2022-08-11T03:54:00.185Z,2.42
2022-08-11T03:56:35.407Z,2.55
2022-08-11T03:59:10.866Z,2.30
2022-08-11T04:02:05.414Z,2.38
2022-08-11T04:04:47.710Z,2.28
2022-08-11T04:07:42.645Z,2.45
2022-08-11T04:10:47.365Z,2.10
2022-08-11T04:13:32.216Z,2.28
2022-08-11T04:16:29.545Z,2.50
2022-08-11T04:19:14.504Z,2.40
2022-08-11T04:22:07.134Z,2.38
2022-08-11T04:25:02.868Z,2.58
2022-08-11T04:27:53.231Z,2.40
2022-08-11T04:30:27.888Z,2.67
2022-08-11T04:33:19.151Z,2.60
2022-08-11T04:36:55.912Z,2.55
2022-08-11T04:39:40.384Z,2.60
2022-08-11T04:42:54.760Z,2.40
2022-08-11T04:45:30.021Z,2.33
2022-08-11T04:49:03.188Z,2.40
2022-08-11T04:52:06.767Z,2.50
2022-08-11T04:55:24.142Z,2.60
2022-08-11T04:58:32.676Z,2.67
2022-08-11T05:01:37.712Z,2.70
2022-08-11T05:04:28.973Z,2.38
2022-08-11T05:07:20.215Z,2.60
2022-08-11T05:10:06.862Z,2.58
2022-08-11T05:13:19.164Z,2.42
2022-08-11T05:16:15.972Z,3.20
2022-08-11T05:19:09.288Z,3.13
2022-08-11T05:21:57.428Z,2.60
2022-08-11T05:24:54.416Z,2.67
2022-08-11T05:27:47.273Z,3.40
2022-08-11T05:30:34.416Z,3.20
2022-08-11T05:33:35.600Z,2.90
2022-08-11T05:36:29.129Z,3.00
2022-08-11T05:39:36.524Z,3.10
2022-08-11T05:42:30.437Z,3.30
2022-08-11T05:45:58.122Z,3.30
2022-08-11T05:48:54.312Z,3.23
2022-08-11T05:51:55.073Z,3.33
2022-08-11T05:54:42.554Z,3.22
2022-08-11T05:57:49.927Z,3.78
2022-08-11T06:00:14.516Z,3.92
2022-08-11T06:02:49.106Z,3.70
2022-08-11T06:05:16.567Z,4.03
2022-08-11T06:07:49.489Z,4.30
2022-08-11T06:10:26.811Z,3.97
2022-08-11T06:12:55.903Z,4.13
2022-08-11T06:15:23.063Z,4.80
2022-08-11T06:17:51.228Z,4.25
2022-08-11T06:20:20.167Z,4.85
2022-08-11T06:22:55.072Z,4.32
2022-08-11T06:25:22.402Z,4.65
2022-08-11T06:27:56.375Z,4.60
2022-08-11T06:30:35.182Z,4.32
2022-08-11T06:33:04.227Z,4.60
2022-08-11T06:35:38.744Z,4.72
2022-08-11T06:38:09.420Z,4.45
2022-08-11T06:41:09.449Z,4.93
2022-08-11T06:43:55.374Z,4.93
2022-08-11T06:46:32.138Z,4.72
2022-08-11T06:49:03.237Z,5.07
2022-08-11T06:51:32.596Z,4.63
2022-08-11T06:54:04.800Z,4.30
2022-08-11T07:00:02.548Z,4.70
2022-08-11T07:02:37.157Z,4.93
2022-08-11T07:05:11.425Z,5.03
2022-08-11T07:08:33.745Z,4.80
2022-08-11T07:11:58.351Z,4.70
2022-08-11T07:14:46.585Z,4.90
2022-08-11T07:17:17.605Z,5.72
2022-08-11T07:20:09.309Z,5.25
2022-08-11T07:22:55.294Z,5.23
2022-08-11T07:25:43.346Z,5.30
2022-08-11T07:28:40.271Z,5.40
2022-08-11T07:31:14.147Z,5.10
2022-08-11T07:34:06.462Z,5.45
2022-08-11T07:36:35.144Z,5.32
2022-08-11T07:39:02.766Z,5.10
2022-08-11T07:41:33.977Z,5.28
2022-08-11T07:44:09.169Z,6.25
2022-08-11T07:47:04.171Z,5.75
2022-08-11T07:49:51.505Z,5.68
2022-08-11T07:52:32.523Z,6.07
2022-08-11T07:55:16.811Z,5.95
2022-08-11T07:58:16.678Z,6.18
2022-08-11T08:01:10.177Z,5.75
2022-08-11T08:03:57.924Z,5.88
2022-08-11T08:06:44.757Z,6.03
2022-08-11T08:09:31.020Z,6.22
2022-08-11T08:12:20.100Z,5.90
2022-08-11T08:15:05.130Z,5.97
2022-08-11T08:18:09.744Z,5.72
2022-08-11T08:20:49.951Z,6.68
2022-08-11T08:23:33.335Z,5.85
2022-08-11T08:26:26.296Z,6.32
2022-08-11T08:28:55.083Z,6.25
2022-08-11T08:31:21.976Z,5.75
2022-08-11T08:33:48.577Z,6.22
2022-08-11T08:36:16.813Z,6.10
2022-08-11T08:38:52.775Z,6.32
2022-08-11T08:41:29.829Z,6.43
2022-08-11T08:44:15.211Z,6.05
2022-08-11T08:46:54.490Z,6.43
2022-08-11T08:49:26.804Z,5.55
2022-08-11T08:52:19.660Z,5.72
2022-08-11T08:54:44.600Z,5.90
2022-08-11T08:57:13.209Z,6.00
2022-08-11T08:59:49.091Z,6.38
2022-08-11T09:02:18.082Z,6.18
2022-08-11T09:04:46.626Z,5.50
2022-08-11T09:07:16.566Z,5.85
2022-08-11T09:09:45.268Z,5.90
2022-08-11T09:12:12.957Z,6.03
2022-08-11T09:15:00.136Z,6.72
2022-08-11T09:17:29.389Z,5.93
2022-08-11T09:20:00.449Z,5.40
2022-08-11T09:23:03.225Z,5.70
2022-08-11T09:25:54.396Z,5.95
2022-08-11T09:28:22.437Z,6.50
2022-08-11T09:30:55.118Z,5.60
2022-08-11T09:33:23.953Z,5.07
2022-08-11T09:35:52.561Z,5.97
2022-08-11T09:38:44.961Z,5.32
2022-08-11T09:41:14.368Z,4.97
2022-08-11T09:44:04.268Z,6.00
2022-08-11T09:46:33.063Z,5.75
2022-08-11T09:49:02.121Z,5.68
2022-08-11T09:51:32.755Z,5.75
2022-08-11T09:54:03.737Z,5.47
2022-08-11T09:56:50.221Z,5.10
2022-08-11T09:59:20.578Z,5.23
2022-08-11T10:01:50.509Z,6.10
2022-08-11T10:04:20.721Z,5.18
2022-08-11T10:07:06.791Z,5.75
2022-08-11T10:09:56.943Z,5.30
2022-08-11T10:12:27.160Z,5.80
2022-08-11T10:15:15.504Z,5.72
2022-08-11T10:18:06.193Z,5.55
2022-08-11T10:20:35.283Z,5.03
2022-08-11T10:23:22.171Z,5.10
2022-08-11T10:26:07.944Z,4.90
2022-08-11T10:28:50.031Z,5.95
2022-08-11T10:31:57.507Z,5.20
2022-08-11T10:34:29.286Z,5.13
2022-08-11T10:36:58.246Z,4.82
2022-08-11T10:39:26.738Z,5.10
2022-08-11T10:42:21.045Z,4.97
2022-08-11T10:45:01.536Z,4.88
2022-08-11T10:47:39.331Z,4.75
2022-08-11T10:50:33.421Z,6.00
2022-08-11T10:53:19.692Z,6.07
2022-08-11T10:56:05.711Z,5.40
2022-08-11T10:58:47.895Z,5.30
2022-08-11T11:01:17.398Z,4.70
2022-08-11T11:03:44.798Z,5.45
2022-08-11T11:06:44.879Z,5.17
2022-08-11T11:09:16.910Z,4.88
2022-08-11T11:12:41.315Z,5.07
2022-08-11T11:15:28.011Z,4.80
2022-08-11T11:18:01.766Z,5.13
2022-08-11T11:20:37.990Z,4.60
2022-08-11T11:23:08.292Z,5.65
2022-08-11T11:26:06.337Z,4.88
2022-08-11T11:29:09.862Z,4.60
2022-08-11T11:31:54.891Z,4.72
2022-08-11T11:34:22.003Z,4.50
2022-08-11T11:36:52.563Z,5.00
2022-08-11T11:39:24.066Z,4.45
2022-08-11T11:41:54.201Z,5.18
2022-08-11T11:44:22.948Z,4.90
2022-08-11T11:46:50.635Z,5.07
2022-08-11T11:51:55.223Z,5.30
2022-08-11T11:54:26.590Z,5.32
2022-08-11T11:56:54.661Z,4.95
2022-08-11T11:59:41.548Z,5.10
2022-08-11T12:02:11.908Z,4.80
2022-08-11T12:04:42.903Z,4.80
2022-08-11T12:07:29.579Z,5.28
2022-08-11T12:09:57.483Z,4.32
2022-08-11T12:12:44.077Z,5.13
2022-08-11T12:15:11.848Z,4.80
2022-08-11T12:17:39.138Z,4.50
2022-08-11T12:20:31.809Z,4.72
2022-08-11T12:23:14.756Z,4.40
2022-08-11T12:26:32.528Z,4.22
2022-08-11T12:28:49.747Z,3.97
2022-08-11T12:31:16.344Z,4.10
2022-08-11T12:33:44.470Z,4.20
2022-08-11T12:36:15.698Z,4.35
2022-08-11T12:38:46.745Z,4.28
2022-08-11T12:41:39.458Z,4.57
2022-08-11T12:44:29.173Z,4.00
2022-08-11T12:46:59.529Z,4.38
2022-08-11T12:49:49.446Z,4.32
2022-08-11T12:52:33.976Z,4.60
2022-08-11T12:55:13.481Z,4.05
2022-08-11T12:58:05.363Z,4.28
2022-08-11T13:00:51.707Z,4.07
2022-08-11T13:03:41.008Z,4.00
2022-08-11T13:06:08.558Z,3.92
2022-08-11T13:08:37.622Z,4.00
2022-08-11T13:11:23.581Z,4.15
2022-08-11T13:13:57.138Z,4.40
2022-08-11T13:16:28.943Z,4.35
2022-08-11T13:18:57.534Z,4.00
2022-08-11T13:21:24.463Z,3.72
2022-08-11T13:24:01.115Z,3.60
2022-08-11T13:26:41.538Z,3.90
2022-08-11T13:29:17.305Z,3.70
2022-08-11T13:31:44.415Z,3.78
2022-08-11T13:34:11.477Z,3.30
2022-08-11T13:36:38.654Z,3.40
2022-08-11T13:39:05.592Z,3.17
2022-08-11T13:41:39.164Z,3.70
2022-08-11T13:44:08.084Z,3.53
2022-08-11T13:46:35.193Z,3.17
2022-08-11T13:49:03.160Z,3.13
2022-08-11T13:51:34.299Z,3.28
2022-08-11T13:54:04.598Z,3.00
2022-08-11T13:56:32.479Z,2.83
2022-08-11T13:59:01.047Z,3.05
2022-08-11T14:02:22.976Z,3.00
2022-08-11T14:04:30.613Z,2.90
2022-08-11T14:07:00.764Z,2.53
2022-08-11T14:09:30.134Z,2.58
2022-08-11T14:12:24.362Z,2.97
2022-08-11T14:15:08.576Z,2.70
2022-08-11T14:17:48.017Z,2.85
2022-08-11T14:20:39.907Z,2.80
2022-08-11T14:23:05.389Z,2.70
2022-08-11T14:26:00.326Z,2.50
2022-08-11T14:28:31.638Z,2.40
2022-08-11T14:31:05.300Z,2.70
2022-08-11T14:33:59.949Z,2.30
2022-08-11T14:36:23.025Z,2.38
2022-08-11T14:38:50.440Z,2.10
2022-08-11T14:41:36.765Z,2.30
2022-08-11T14:44:23.666Z,2.22
2022-08-11T14:47:24.082Z,2.22
2022-08-11T14:49:58.558Z,1.95
2022-08-11T14:52:37.631Z,2.00
2022-08-11T14:55:23.806Z,2.28
2022-08-11T14:57:55.518Z,1.90
2022-08-11T15:00:23.421Z,2.08
2022-08-11T15:03:08.561Z,1.67
2022-08-11T15:05:36.480Z,2.00
2022-08-11T15:08:03.258Z,2.03
2022-08-11T15:10:29.893Z,1.95
2022-08-11T15:12:56.668Z,2.13
2022-08-11T15:15:43.592Z,2.10
2022-08-11T15:18:15.127Z,1.80
2022-08-11T15:21:00.214Z,2.00
2022-08-11T15:23:45.577Z,2.17
2022-08-11T15:26:16.565Z,1.92
2022-08-11T15:29:23.626Z,2.13
2022-08-11T15:32:08.566Z,2.07
2022-08-11T15:34:54.074Z,1.80
2022-08-11T15:37:26.693Z,2.00
2022-08-11T15:40:33.784Z,1.73
2022-08-11T15:43:43.456Z,1.73
2022-08-11T15:46:16.224Z,1.80
2022-08-11T15:48:57.874Z,1.70
2022-08-11T15:51:37.159Z,1.80
2022-08-11T15:54:09.377Z,1.63
2022-08-11T15:56:41.704Z,1.90
2022-08-11T15:59:43.314Z,1.80
2022-08-11T16:02:17.472Z,1.85
2022-08-11T16:04:46.274Z,1.63
2022-08-11T16:07:15.835Z,1.80
2022-08-11T16:09:47.695Z,1.90
2022-08-11T16:12:20.593Z,3.67
2022-08-11T16:15:10.721Z,2.38
2022-08-11T16:17:50.021Z,1.80
2022-08-11T16:20:20.856Z,1.85
2022-08-11T16:22:57.123Z,2.10
2022-08-11T16:27:05.339Z,1.70
2022-08-11T16:28:18.677Z,1.63
2022-08-11T16:30:46.452Z,1.70
2022-08-11T16:33:48.504Z,1.55
2022-08-11T16:36:20.032Z,1.80
2022-08-11T16:38:46.499Z,1.77
2022-08-11T16:41:36.967Z,1.65
2022-08-11T16:44:36.982Z,1.50
2022-08-11T16:47:08.594Z,1.55
2022-08-11T16:49:37.245Z,1.75
2022-08-11T16:52:08.047Z,1.70
2022-08-11T16:54:35.555Z,1.70
2022-08-11T16:57:33.632Z,1.42
2022-08-11T17:00:04.528Z,1.60
2022-08-11T17:02:53.553Z,1.60
2022-08-11T17:05:54.356Z,1.40
2022-08-11T17:09:06.695Z,1.73
2022-08-11T17:11:59.101Z,1.42
2022-08-11T17:14:36.547Z,1.88
2022-08-11T17:17:11.201Z,1.63
2022-08-11T17:20:40.834Z,1.50
2022-08-11T17:22:51.080Z,1.67
2022-08-11T17:25:19.457Z,1.50
2022-08-11T17:27:47.835Z,1.75
2022-08-11T17:30:14.833Z,1.77
2022-08-11T17:33:07.924Z,1.40
2022-08-11T17:35:38.936Z,1.75
2022-08-11T17:38:08.335Z,1.50
2022-08-11T17:40:38.712Z,1.73
2022-08-11T17:43:26.979Z,1.33
2022-08-11T17:46:14.176Z,1.40
2022-08-11T17:48:47.677Z,1.80
2022-08-11T17:51:38.154Z,1.50
2022-08-11T17:54:25.370Z,1.33
2022-08-11T17:57:21.308Z,1.40
2022-08-11T17:59:53.702Z,1.60
2022-08-11T18:02:43.533Z,1.45
2022-08-11T18:05:13.422Z,1.60
2022-08-11T18:08:01.345Z,1.60
2022-08-11T18:10:49.348Z,1.40
2022-08-11T18:13:41.823Z,1.70
2022-08-11T18:16:29.607Z,1.45
2022-08-11T18:19:14.811Z,1.55
2022-08-11T18:22:14.160Z,1.50
2022-08-11T18:25:07.312Z,1.48
2022-08-11T18:27:54.669Z,1.50
2022-08-11T18:30:40.651Z,1.33
2022-08-11T18:36:39.855Z,1.42
2022-08-11T18:39:30.205Z,1.48
2022-08-11T18:42:28.812Z,1.70
2022-08-11T18:45:17.975Z,1.40
2022-08-11T18:48:05.840Z,1.63
2022-08-11T18:51:00.674Z,1.50
2022-08-11T18:54:00.620Z,1.70
2022-08-11T18:56:48.364Z,1.40
2022-08-11T18:59:36.553Z,1.73
2022-08-11T19:02:23.511Z,1.40
2022-08-11T19:05:09.900Z,1.40
2022-08-11T19:07:57.457Z,1.45
2022-08-11T19:10:42.789Z,1.40
2022-08-11T19:13:28.544Z,1.50
2022-08-11T19:16:14.821Z,1.67
2022-08-11T19:19:01.619Z,1.50
2022-08-11T19:21:48.323Z,1.48
2022-08-11T19:24:34.680Z,1.60
2022-08-11T19:27:21.507Z,1.58
2022-08-11T19:30:13.948Z,1.50
2022-08-11T19:32:59.751Z,1.67
2022-08-11T19:35:45.521Z,1.65
2022-08-11T19:38:31.321Z,1.57
2022-08-11T19:41:18.477Z,1.40
2022-08-11T19:44:23.615Z,1.50
2022-08-11T19:47:10.498Z,1.65
2022-08-11T19:49:56.725Z,1.45
2022-08-11T19:52:42.762Z,1.40
2022-08-11T19:55:28.620Z,1.60
2022-08-11T19:58:14.409Z,1.40
2022-08-11T20:01:01.296Z,1.50
2022-08-11T20:03:46.428Z,1.50
2022-08-11T20:06:34.969Z,1.57
2022-08-11T20:09:21.876Z,1.60
2022-08-11T20:12:11.784Z,1.50
2022-08-11T20:15:00.041Z,1.45
2022-08-11T20:17:50.362Z,1.60
2022-08-11T20:20:36.262Z,1.20
2022-08-11T20:23:24.637Z,1.55
2022-08-11T20:26:30.092Z,1.75
2022-08-11T20:29:16.365Z,1.40
2022-08-11T20:32:06.456Z,1.45
2022-08-11T20:34:56.759Z,1.40
2022-08-11T20:37:47.770Z,1.73
2022-08-11T20:40:38.643Z,1.60
2022-08-11T20:44:06.087Z,1.45
2022-08-11T20:46:32.917Z,1.50
2022-08-11T20:49:20.060Z,1.30
2022-08-11T20:52:06.271Z,1.50
2022-08-11T20:54:52.680Z,1.60
2022-08-11T20:57:58.922Z,1.50
2022-08-11T21:00:44.011Z,1.65
2022-08-11T21:03:35.416Z,1.63
2022-08-11T21:06:26.243Z,1.50
2022-08-11T21:09:19.723Z,1.50
2022-08-11T21:12:06.213Z,1.70
2022-08-11T21:14:53.600Z,1.50
2022-08-11T21:18:00.212Z,1.53
2022-08-11T21:20:45.838Z,1.63
2022-08-11T21:23:35.264Z,1.80
2022-08-11T21:26:28.209Z,1.73
2022-08-11T21:29:16.036Z,1.70
2022-08-11T21:32:02.893Z,1.73
2022-08-11T21:34:49.679Z,1.92
2022-08-11T21:37:36.475Z,1.80
2022-08-11T21:40:25.377Z,2.00
2022-08-11T21:43:12.537Z,2.05
2022-08-11T21:45:58.840Z,1.73
2022-08-11T21:48:46.224Z,1.83
2022-08-11T21:51:31.424Z,1.83
2022-08-11T21:54:18.525Z,2.05
2022-08-11T21:57:05.320Z,2.00
2022-08-11T22:00:11.351Z,1.90
2022-08-11T22:03:03.509Z,2.22
2022-08-11T22:05:50.337Z,2.10
2022-08-11T22:08:36.075Z,1.90
2022-08-11T22:11:31.691Z,1.92
2022-08-11T22:14:19.238Z,1.90
2022-08-11T22:17:04.001Z,1.77
2022-08-11T22:19:49.465Z,2.47
2022-08-11T22:22:34.877Z,2.05
2022-08-11T22:25:38.746Z,2.10
2022-08-11T22:28:24.062Z,2.20
2022-08-11T22:31:09.440Z,1.80
2022-08-11T22:34:02.224Z,2.17
2022-08-11T22:36:47.708Z,2.28
2022-08-11T22:39:35.429Z,2.10
2022-08-11T22:42:21.654Z,2.30
2022-08-11T22:45:18.161Z,2.28
2022-08-11T22:48:05.982Z,1.90
2022-08-11T22:50:51.789Z,2.17
2022-08-11T22:53:54.949Z,2.13
2022-08-11T22:56:42.581Z,2.10
2022-08-11T22:59:28.279Z,2.17
2022-08-11T23:02:14.179Z,2.20
2022-08-11T23:05:00.031Z,2.00
2022-08-11T23:07:49.440Z,2.47
2022-08-11T23:10:37.721Z,2.00
2022-08-11T23:13:23.126Z,2.10
2022-08-11T23:16:08.912Z,2.42
2022-08-11T23:18:54.256Z,2.13
2022-08-11T23:21:40.062Z,2.30
2022-08-11T23:24:25.741Z,2.30
2022-08-11T23:27:11.674Z,2.30
2022-08-11T23:29:58.506Z,2.35
2022-08-11T23:32:45.673Z,2.30
2022-08-11T23:35:39.350Z,2.38
2022-08-11T23:38:25.940Z,2.30
2022-08-11T23:41:11.748Z,2.40
2022-08-11T23:43:57.072Z,2.33
2022-08-11T23:46:43.951Z,2.53
2022-08-11T23:49:29.698Z,2.75
2022-08-11T23:52:16.685Z,2.60
2022-08-11T23:55:03.057Z,2.58
2022-08-11T23:57:49.826Z,2.40
